createdAt,value
2023-04-16T00:01:27.572Z,9.07
2023-04-16T00:03:55.096Z,9.05
2023-04-16T00:06:23.173Z,9.01
2023-04-16T00:08:50.423Z,8.94
2023-04-16T00:11:17.401Z,8.89
2023-04-16T00:13:43.994Z,8.84
2023-04-16T00:16:10.705Z,8.80
2023-04-16T00:18:37.265Z,8.78
2023-04-16T00:21:04.002Z,8.76
2023-04-16T00:23:30.628Z,8.70
2023-04-16T00:25:59.971Z,8.66
2023-04-16T00:28:27.720Z,8.64
2023-04-16T00:30:55.047Z,8.60
2023-04-16T00:33:21.783Z,8.55
2023-04-16T00:35:48.837Z,8.51
2023-04-16T00:38:15.863Z,8.43
2023-04-16T00:40:42.649Z,8.40
2023-04-16T00:43:09.208Z,8.36
2023-04-16T00:45:36.685Z,8.32
2023-04-16T00:48:04.212Z,8.30
2023-04-16T00:50:30.976Z,8.27
2023-04-16T00:52:58.100Z,8.23
2023-04-16T00:55:24.894Z,8.22
2023-04-16T00:57:51.472Z,8.19
2023-04-16T01:00:18.006Z,8.19
2023-04-16T01:02:44.719Z,8.19
2023-04-16T01:05:11.426Z,8.18
2023-04-16T01:07:38.187Z,8.17
2023-04-16T01:10:05.000Z,8.16
2023-04-16T01:12:32.570Z,8.14
2023-04-16T01:14:59.216Z,8.13
2023-04-16T01:17:26.041Z,8.12
2023-04-16T01:19:52.657Z,8.11
2023-04-16T01:22:19.265Z,8.11
2023-04-16T01:24:46.235Z,8.12
2023-04-16T01:27:12.825Z,8.10
2023-04-16T01:29:39.406Z,8.12
2023-04-16T01:32:06.121Z,8.12
2023-04-16T01:34:32.719Z,8.13
2023-04-16T01:36:59.389Z,8.13
2023-04-16T01:39:26.410Z,8.12
2023-04-16T01:41:52.963Z,8.10
2023-04-16T01:44:19.506Z,8.11
2023-04-16T01:46:46.338Z,8.11
2023-04-16T01:49:12.991Z,8.11
2023-04-16T01:51:39.547Z,8.12
2023-04-16T01:54:06.189Z,8.13
2023-04-16T01:56:32.851Z,8.13
2023-04-16T01:58:59.380Z,8.13
2023-04-16T02:01:26.186Z,8.12
2023-04-16T02:03:53.589Z,8.12
2023-04-16T02:06:20.213Z,8.11
2023-04-16T02:08:46.762Z,8.10
2023-04-16T02:11:13.394Z,8.10
2023-04-16T02:13:39.940Z,8.10
2023-04-16T02:16:06.734Z,8.09
2023-04-16T02:18:33.336Z,8.08
2023-04-16T02:21:00.539Z,8.07
2023-04-16T02:23:27.075Z,8.08
2023-04-16T02:25:53.747Z,8.07
2023-04-16T02:28:20.341Z,8.09
2023-04-16T02:30:46.962Z,8.10
2023-04-16T02:33:13.613Z,8.10
2023-04-16T02:35:40.500Z,8.11
2023-04-16T02:38:07.860Z,8.12
2023-04-16T02:40:34.845Z,8.13
2023-04-16T02:43:01.423Z,8.13
2023-04-16T02:45:27.970Z,8.14
2023-04-16T02:47:54.669Z,8.13
2023-04-16T02:50:21.356Z,8.12
2023-04-16T02:52:48.623Z,8.10
2023-04-16T02:55:15.181Z,8.10
2023-04-16T02:57:42.620Z,8.10
2023-04-16T03:00:09.903Z,8.10
2023-04-16T03:02:36.615Z,8.12
2023-04-16T03:05:03.778Z,8.14
2023-04-16T03:07:30.452Z,8.14
2023-04-16T03:09:57.275Z,8.17
2023-04-16T03:12:23.876Z,8.17
2023-04-16T03:14:52.564Z,8.19
2023-04-16T03:17:19.299Z,8.18
2023-04-16T03:19:46.200Z,8.20
2023-04-16T03:22:13.285Z,8.19
2023-04-16T03:24:39.897Z,8.20
2023-04-16T03:27:06.459Z,8.21
2023-04-16T03:29:33.003Z,8.19
2023-04-16T03:31:59.607Z,8.15
2023-04-16T03:34:26.169Z,8.12
2023-04-16T03:36:52.757Z,8.12
2023-04-16T03:39:19.327Z,8.12
2023-04-16T03:41:46.240Z,8.12
2023-04-16T03:44:12.787Z,8.13
2023-04-16T03:46:39.439Z,8.16
2023-04-16T03:49:06.270Z,8.17
2023-04-16T03:51:33.036Z,8.19
2023-04-16T03:53:59.633Z,8.20
2023-04-16T03:56:26.288Z,8.22
2023-04-16T03:58:52.927Z,8.22
2023-04-16T04:01:19.518Z,8.23
2023-04-16T04:03:46.242Z,8.26
2023-04-16T04:06:13.068Z,8.26
2023-04-16T04:08:39.607Z,8.27
2023-04-16T04:11:06.137Z,8.29
2023-04-16T04:13:32.692Z,8.29
2023-04-16T04:15:59.286Z,8.31
2023-04-16T04:18:26.023Z,8.34
2023-04-16T04:20:52.734Z,8.35
2023-04-16T04:23:19.332Z,8.37
2023-04-16T04:25:46.076Z,8.37
2023-04-16T04:28:12.662Z,8.36
2023-04-16T04:30:39.238Z,8.35
2023-04-16T04:33:06.389Z,8.35
2023-04-16T04:35:33.498Z,8.34
2023-04-16T04:38:00.176Z,8.34
2023-04-16T04:40:26.722Z,8.33
2023-04-16T04:42:53.230Z,8.31
2023-04-16T04:45:19.763Z,8.32
2023-04-16T04:47:46.375Z,8.31
2023-04-16T04:50:12.965Z,8.32
2023-04-16T04:52:39.524Z,8.33
2023-04-16T04:55:06.464Z,8.34
2023-04-16T04:57:33.037Z,8.34
2023-04-16T04:59:59.629Z,8.35
2023-04-16T05:02:26.182Z,8.36
2023-04-16T05:04:52.797Z,8.37
2023-04-16T05:07:19.340Z,8.38
2023-04-16T05:09:45.875Z,8.39
2023-04-16T05:12:12.404Z,8.39
2023-04-16T05:14:38.993Z,8.39
2023-04-16T05:17:05.541Z,8.37
2023-04-16T05:19:32.107Z,8.31
2023-04-16T05:21:58.683Z,8.26
2023-04-16T05:24:25.451Z,8.22
2023-04-16T05:26:52.074Z,8.19
2023-04-16T05:29:18.664Z,8.17
2023-04-16T05:31:45.646Z,8.15
2023-04-16T05:34:12.169Z,8.13
2023-04-16T05:36:38.680Z,8.12
2023-04-16T05:39:06.259Z,8.09
2023-04-16T05:41:32.807Z,8.10
2023-04-16T05:43:59.407Z,8.15
2023-04-16T05:46:26.057Z,8.16
2023-04-16T05:48:52.695Z,8.19
2023-04-16T05:51:19.501Z,8.21
2023-04-16T05:53:46.073Z,8.27
2023-04-16T05:56:12.611Z,8.32
2023-04-16T05:58:39.149Z,8.36
2023-04-16T06:01:05.722Z,8.41
2023-04-16T06:03:32.301Z,8.48
2023-04-16T06:05:59.107Z,8.55
2023-04-16T06:08:25.701Z,8.60
2023-04-16T06:10:52.327Z,8.66
2023-04-16T06:13:18.893Z,8.71
2023-04-16T06:15:45.528Z,8.74
2023-04-16T06:18:12.183Z,8.79
2023-04-16T06:20:38.790Z,8.80
2023-04-16T06:23:05.542Z,8.82
2023-04-16T06:25:32.135Z,8.84
2023-04-16T06:27:58.743Z,8.88
2023-04-16T06:30:25.614Z,8.92
2023-04-16T06:32:53.010Z,8.97
2023-04-16T06:35:20.376Z,8.99
2023-04-16T06:37:47.161Z,8.99
2023-04-16T06:40:13.859Z,9.02
2023-04-16T06:42:41.196Z,9.04
2023-04-16T06:45:09.251Z,9.09
2023-04-16T06:47:35.847Z,9.13
2023-04-16T06:50:02.482Z,9.20
2023-04-16T06:52:29.602Z,9.24
2023-04-16T06:54:56.510Z,9.30
2023-04-16T06:57:23.032Z,9.35
2023-04-16T06:59:49.592Z,9.41
2023-04-16T07:02:16.606Z,9.49
2023-04-16T07:04:43.245Z,9.58
2023-04-16T07:07:12.580Z,9.67
2023-04-16T07:09:39.111Z,9.77
2023-04-16T07:12:07.051Z,9.90
2023-04-16T07:14:33.691Z,9.99
2023-04-16T07:17:00.444Z,10.11
2023-04-16T07:19:30.604Z,10.22
2023-04-16T07:21:57.069Z,10.25
2023-04-16T07:24:23.724Z,10.37
2023-04-16T07:26:50.305Z,10.43
2023-04-16T07:29:16.848Z,10.50
2023-04-16T07:31:43.442Z,10.59
2023-04-16T07:34:10.088Z,10.67
2023-04-16T07:36:36.735Z,10.79
2023-04-16T07:39:04.886Z,10.96
2023-04-16T07:41:31.605Z,11.12
2023-04-16T07:43:58.441Z,11.33
2023-04-16T07:46:28.358Z,11.56
2023-04-16T07:48:59.849Z,11.73
2023-04-16T07:51:26.574Z,11.82
2023-04-16T07:53:53.192Z,11.86
2023-04-16T07:56:19.724Z,11.86
2023-04-16T07:58:46.269Z,11.92
2023-04-16T08:01:12.857Z,11.99
2023-04-16T08:03:39.515Z,12.09
2023-04-16T08:06:06.797Z,12.24
2023-04-16T08:08:33.351Z,12.42
2023-04-16T08:11:00.382Z,12.58
2023-04-16T08:13:27.002Z,12.72
2023-04-16T08:15:53.651Z,12.91
2023-04-16T08:18:20.384Z,13.14
2023-04-16T08:20:47.033Z,13.40
2023-04-16T08:23:13.559Z,13.75
2023-04-16T08:25:40.302Z,14.12
2023-04-16T08:28:06.852Z,14.68
2023-04-16T08:30:33.644Z,15.14
2023-04-16T08:33:00.492Z,15.38
2023-04-16T08:35:27.518Z,15.58
2023-04-16T08:37:54.335Z,15.81
2023-04-16T08:40:21.283Z,15.90
2023-04-16T08:42:53.875Z,15.86
2023-04-16T08:45:20.441Z,15.84
2023-04-16T08:47:50.057Z,15.98
2023-04-16T08:50:22.355Z,16.11
2023-04-16T08:52:56.844Z,16.16
2023-04-16T08:55:29.847Z,16.24
2023-04-16T08:57:58.778Z,16.30
2023-04-16T09:00:25.547Z,16.35
2023-04-16T09:02:53.193Z,16.33
2023-04-16T09:05:22.782Z,16.30
2023-04-16T09:07:49.428Z,16.27
2023-04-16T09:10:16.621Z,16.31
2023-04-16T09:12:43.751Z,16.35
2023-04-16T09:15:11.897Z,16.40
2023-04-16T09:17:39.341Z,16.38
2023-04-16T09:20:08.975Z,16.35
2023-04-16T09:22:36.788Z,16.27
2023-04-16T09:25:03.787Z,16.16
2023-04-16T09:27:30.943Z,16.08
2023-04-16T09:29:57.738Z,15.94
2023-04-16T09:32:27.388Z,15.83
2023-04-16T09:37:33.714Z,15.73
2023-04-16T09:40:02.247Z,15.67
2023-04-16T09:42:31.922Z,15.67
2023-04-16T09:45:01.428Z,15.63
2023-04-16T09:47:45.973Z,15.55
2023-04-16T09:50:18.627Z,15.55
2023-04-16T09:52:48.881Z,15.57
2023-04-16T09:55:15.494Z,15.51
2023-04-16T09:57:42.047Z,15.47
2023-04-16T10:00:10.235Z,15.47
2023-04-16T10:02:41.909Z,15.45
2023-04-16T10:05:09.198Z,15.44
2023-04-16T10:07:37.246Z,15.48
2023-04-16T10:10:04.797Z,15.51
2023-04-16T10:12:32.919Z,15.60
2023-04-16T10:15:00.103Z,15.66
2023-04-16T10:17:30.087Z,15.61
2023-04-16T10:19:58.394Z,15.57
2023-04-16T10:22:26.218Z,15.61
2023-04-16T10:24:53.425Z,15.69
2023-04-16T10:27:20.773Z,15.78
2023-04-16T10:29:48.923Z,15.87
2023-04-16T10:32:17.894Z,15.85
2023-04-16T10:34:44.715Z,15.80
2023-04-16T10:37:11.257Z,15.79
2023-04-16T10:39:38.238Z,15.79
2023-04-16T10:42:10.151Z,15.80
2023-04-16T10:44:36.714Z,15.88
2023-04-16T10:47:11.157Z,15.98
2023-04-16T10:49:37.789Z,16.06
2023-04-16T10:52:17.160Z,16.08
2023-04-16T10:54:44.036Z,16.18
2023-04-16T10:57:16.115Z,16.27
2023-04-16T10:59:44.105Z,16.31
2023-04-16T11:02:16.098Z,16.35
2023-04-16T11:04:45.605Z,16.43
2023-04-16T11:10:05.200Z,16.47
2023-04-16T11:15:15.415Z,16.68
2023-04-16T11:17:45.434Z,16.47
2023-04-16T11:22:54.973Z,16.44
2023-04-16T11:27:59.286Z,16.59
2023-04-16T11:30:31.042Z,16.69
2023-04-16T11:32:57.698Z,16.68
2023-04-16T11:35:24.444Z,16.73
2023-04-16T11:37:56.718Z,16.84
2023-04-16T11:40:23.973Z,16.95
2023-04-16T11:42:50.697Z,17.01
2023-04-16T11:45:19.389Z,17.05
2023-04-16T11:47:51.888Z,17.09
2023-04-16T11:52:57.462Z,17.12
2023-04-16T11:55:24.732Z,17.18
2023-04-16T11:57:52.138Z,17.19
2023-04-16T12:00:23.101Z,17.20
2023-04-16T12:02:52.682Z,17.27
2023-04-16T12:05:34.647Z,17.29
2023-04-16T12:08:04.095Z,17.32
2023-04-16T12:10:34.997Z,17.29
2023-04-16T12:13:17.769Z,17.23
2023-04-16T12:15:47.185Z,17.02
2023-04-16T12:18:15.029Z,17.03
2023-04-16T12:20:43.375Z,17.02
2023-04-16T12:23:11.512Z,16.98
2023-04-16T12:25:38.088Z,16.83
2023-04-16T12:28:04.863Z,16.79
2023-04-16T12:30:31.525Z,16.82
2023-04-16T12:33:17.151Z,16.78
2023-04-16T12:35:44.997Z,16.81
2023-04-16T12:38:12.185Z,16.75
2023-04-16T12:40:38.839Z,16.70
2023-04-16T12:43:05.580Z,16.70
2023-04-16T12:45:32.143Z,16.75
2023-04-16T12:47:59.264Z,16.62
2023-04-16T12:50:26.082Z,16.51
2023-04-16T12:52:52.636Z,16.43
2023-04-16T12:55:20.120Z,16.29
2023-04-16T12:57:49.171Z,16.09
2023-04-16T13:00:16.377Z,15.94
2023-04-16T13:02:43.125Z,15.82
2023-04-16T13:05:10.176Z,15.66
2023-04-16T13:07:36.713Z,15.58
2023-04-16T13:10:03.466Z,15.60
2023-04-16T13:12:30.050Z,15.49
2023-04-16T13:14:56.615Z,15.46
2023-04-16T13:17:23.179Z,15.46
2023-04-16T13:19:49.932Z,15.45
2023-04-16T13:22:16.546Z,15.44
2023-04-16T13:24:43.065Z,15.45
2023-04-16T13:27:09.834Z,15.39
2023-04-16T13:29:36.758Z,15.42
2023-04-16T13:32:04.014Z,15.40
2023-04-16T13:34:30.819Z,15.34
2023-04-16T13:36:57.376Z,15.27
2023-04-16T13:39:24.034Z,15.18
2023-04-16T13:41:51.416Z,15.15
2023-04-16T13:44:18.118Z,15.15
2023-04-16T13:46:47.684Z,15.08
2023-04-16T13:49:14.867Z,15.08
2023-04-16T13:51:44.558Z,15.13
2023-04-16T13:54:11.114Z,15.20
2023-04-16T13:56:37.828Z,15.26
2023-04-16T13:59:04.467Z,15.31
2023-04-16T14:01:31.144Z,15.33
2023-04-16T14:03:57.751Z,15.35
2023-04-16T14:06:24.363Z,15.42
2023-04-16T14:08:51.012Z,15.47
2023-04-16T14:11:17.578Z,15.51
2023-04-16T14:13:44.124Z,15.51
2023-04-16T14:16:10.935Z,15.54
2023-04-16T14:18:41.922Z,15.49
2023-04-16T14:21:08.982Z,15.44
2023-04-16T14:23:35.668Z,15.45
2023-04-16T14:26:02.229Z,15.50
2023-04-16T14:28:28.845Z,15.54
2023-04-16T14:30:55.432Z,15.55
2023-04-16T14:33:21.976Z,15.57
2023-04-16T14:35:50.371Z,15.57
2023-04-16T14:38:16.998Z,15.57
2023-04-16T14:40:43.564Z,15.56
2023-04-16T14:43:10.138Z,15.55
2023-04-16T14:45:39.068Z,15.51
2023-04-16T14:48:06.357Z,15.41
2023-04-16T14:50:37.925Z,15.45
2023-04-16T14:53:05.992Z,15.48
2023-04-16T14:55:32.880Z,15.46
2023-04-16T14:57:59.874Z,15.47
2023-04-16T15:00:27.543Z,15.51
2023-04-16T15:02:55.651Z,15.54
2023-04-16T15:05:22.327Z,15.63
2023-04-16T15:07:48.974Z,15.74
2023-04-16T15:10:15.569Z,15.77
2023-04-16T15:12:42.154Z,15.77
2023-04-16T15:15:09.573Z,15.78
2023-04-16T15:17:36.231Z,15.87
2023-04-16T15:20:06.619Z,15.94
2023-04-16T15:22:33.275Z,15.94
2023-04-16T15:24:59.983Z,15.91
2023-04-16T15:27:26.902Z,15.90
2023-04-16T15:29:54.054Z,15.79
2023-04-16T15:32:20.878Z,15.72
2023-04-16T15:34:47.627Z,15.61
2023-04-16T15:37:14.217Z,15.55
2023-04-16T15:39:40.825Z,15.53
2023-04-16T15:42:08.120Z,15.56
2023-04-16T15:44:35.040Z,15.57
2023-04-16T15:47:01.636Z,15.54
2023-04-16T15:49:28.239Z,15.56
2023-04-16T15:51:55.949Z,15.56
2023-04-16T15:54:22.669Z,15.50
2023-04-16T15:56:49.332Z,15.45
2023-04-16T15:59:16.136Z,15.46
2023-04-16T16:01:42.790Z,15.46
2023-04-16T16:04:09.652Z,15.47
2023-04-16T16:06:38.153Z,15.46
2023-04-16T16:09:05.373Z,15.44
2023-04-16T16:11:32.637Z,15.47
2023-04-16T16:14:01.481Z,15.44
2023-04-16T16:16:28.872Z,15.40
2023-04-16T16:18:55.787Z,15.41
2023-04-16T16:21:22.740Z,15.43
2023-04-16T16:23:49.391Z,15.44
2023-04-16T16:26:16.085Z,15.42
2023-04-16T16:28:44.719Z,15.38
2023-04-16T16:31:12.528Z,15.38
2023-04-16T16:33:40.460Z,15.44
2023-04-16T16:36:10.631Z,15.49
2023-04-16T16:38:37.226Z,15.33
2023-04-16T16:41:03.791Z,15.53
2023-04-16T16:43:30.364Z,15.57
2023-04-16T16:45:56.935Z,15.56
2023-04-16T16:48:23.529Z,15.58
2023-04-16T16:50:50.296Z,15.62
2023-04-16T16:53:17.117Z,15.63
2023-04-16T16:55:43.697Z,15.61
2023-04-16T16:58:11.117Z,15.60
2023-04-16T17:00:38.146Z,15.58
2023-04-16T17:03:05.030Z,15.57
2023-04-16T17:05:31.772Z,15.60
2023-04-16T17:07:58.724Z,15.59
2023-04-16T17:10:25.410Z,15.58
2023-04-16T17:12:52.177Z,15.56
2023-04-16T17:15:21.785Z,15.55
2023-04-16T17:17:48.868Z,15.56
2023-04-16T17:20:15.747Z,15.54
2023-04-16T17:22:42.653Z,15.54
2023-04-16T17:25:09.931Z,15.50
2023-04-16T17:27:36.699Z,15.45
2023-04-16T17:30:05.434Z,15.35
2023-04-16T17:32:33.023Z,15.27
2023-04-16T17:35:01.187Z,15.19
2023-04-16T17:37:28.647Z,15.10
2023-04-16T17:39:55.244Z,15.01
2023-04-16T17:42:21.785Z,14.96
2023-04-16T17:44:48.384Z,14.94
2023-04-16T17:47:14.985Z,14.90
2023-04-16T17:49:41.514Z,14.88
2023-04-16T17:52:08.105Z,14.87
2023-04-16T17:54:34.619Z,14.84
2023-04-16T17:57:02.040Z,14.81
2023-04-16T17:59:28.960Z,14.77
2023-04-16T18:01:56.676Z,14.74
2023-04-16T18:04:23.657Z,14.71
2023-04-16T18:06:50.512Z,14.69
2023-04-16T18:09:17.328Z,14.65
2023-04-16T18:11:43.851Z,14.62
2023-04-16T18:14:13.270Z,14.60
2023-04-16T18:16:39.954Z,14.57
2023-04-16T18:19:06.573Z,14.52
2023-04-16T18:21:33.933Z,14.48
2023-04-16T18:24:03.443Z,14.44
2023-04-16T18:26:30.170Z,14.36
2023-04-16T18:28:56.939Z,14.33
2023-04-16T18:31:23.645Z,14.27
2023-04-16T18:33:57.315Z,14.22
2023-04-16T18:36:24.523Z,14.18
2023-04-16T18:39:01.127Z,14.16
2023-04-16T18:41:38.158Z,14.12
2023-04-16T18:44:04.852Z,14.10
2023-04-16T18:46:31.509Z,14.07
2023-04-16T18:48:59.118Z,14.05
2023-04-16T18:51:27.370Z,14.01
2023-04-16T18:53:53.962Z,13.99
2023-04-16T18:56:20.849Z,13.97
2023-04-16T18:58:47.852Z,13.94
2023-04-16T19:01:14.492Z,13.92
2023-04-16T19:03:41.198Z,13.88
2023-04-16T19:06:08.091Z,13.86
2023-04-16T19:08:34.653Z,13.84
2023-04-16T19:11:01.198Z,13.82
2023-04-16T19:13:27.953Z,13.79
2023-04-16T19:15:59.772Z,13.79
2023-04-16T19:18:26.700Z,13.75
2023-04-16T19:21:01.535Z,13.71
2023-04-16T19:23:28.518Z,13.70
2023-04-16T19:25:56.730Z,13.67
2023-04-16T19:28:23.917Z,13.65
2023-04-16T19:30:51.533Z,13.64
2023-04-16T19:33:18.979Z,13.60
2023-04-16T19:35:46.395Z,13.59
2023-04-16T19:38:13.136Z,13.57
2023-04-16T19:40:40.376Z,13.56
2023-04-16T19:43:07.017Z,13.54
2023-04-16T19:45:33.600Z,13.51
2023-04-16T19:48:00.297Z,13.51
2023-04-16T19:50:26.917Z,13.49
2023-04-16T19:52:53.450Z,13.45
2023-04-16T19:55:20.140Z,13.40
2023-04-16T19:57:48.237Z,13.37
2023-04-16T20:00:15.270Z,13.34
2023-04-16T20:02:42.074Z,13.31
2023-04-16T20:05:09.304Z,13.29
2023-04-16T20:07:35.949Z,13.29
2023-04-16T20:10:03.118Z,13.27
2023-04-16T20:12:29.756Z,13.27
2023-04-16T20:14:56.326Z,13.24
2023-04-16T20:17:22.898Z,13.21
2023-04-16T20:19:51.243Z,13.19
2023-04-16T20:22:18.802Z,13.17
2023-04-16T20:24:47.775Z,13.16
2023-04-16T20:27:15.301Z,13.14
2023-04-16T20:29:42.048Z,13.12
2023-04-16T20:32:08.595Z,13.10
2023-04-16T20:34:36.684Z,13.07
2023-04-16T20:37:04.535Z,13.05
2023-04-16T20:39:34.260Z,13.03
2023-04-16T20:42:04.151Z,13.00
2023-04-16T20:44:40.365Z,12.79
2023-04-16T20:47:08.420Z,12.90
2023-04-16T20:49:35.367Z,12.90
2023-04-16T20:52:02.752Z,12.90
2023-04-16T20:54:30.176Z,12.88
2023-04-16T20:56:57.752Z,12.84
2023-04-16T20:59:24.960Z,12.83
2023-04-16T21:01:52.903Z,12.81
2023-04-16T21:04:19.612Z,12.78
2023-04-16T21:06:46.756Z,12.77
2023-04-16T21:09:13.460Z,12.74
2023-04-16T21:11:40.438Z,12.73
2023-04-16T21:14:07.045Z,12.70
2023-04-16T21:16:33.673Z,12.68
2023-04-16T21:19:00.268Z,12.65
2023-04-16T21:21:27.536Z,12.63
2023-04-16T21:23:54.124Z,12.59
2023-04-16T21:26:21.011Z,12.55
2023-04-16T21:28:47.576Z,12.49
2023-04-16T21:31:14.164Z,12.46
2023-04-16T21:33:40.822Z,12.44
2023-04-16T21:36:07.627Z,12.42
2023-04-16T21:38:34.199Z,12.39
2023-04-16T21:41:01.928Z,12.37
2023-04-16T21:43:32.603Z,12.36
2023-04-16T21:45:59.783Z,12.34
2023-04-16T21:48:27.072Z,12.32
2023-04-16T21:50:56.140Z,12.29
2023-04-16T21:53:22.686Z,12.25
2023-04-16T21:55:49.247Z,12.25
2023-04-16T21:58:15.863Z,12.22
2023-04-16T22:00:42.535Z,12.21
2023-04-16T22:03:12.445Z,12.20
2023-04-16T22:05:39.275Z,12.16
2023-04-16T22:08:23.591Z,12.13
2023-04-16T22:10:51.496Z,12.13
2023-04-16T22:13:18.230Z,12.14
2023-04-16T22:15:44.795Z,12.14
2023-04-16T22:18:11.497Z,12.13
2023-04-16T22:20:39.299Z,12.15
2023-04-16T22:23:06.938Z,12.14
2023-04-16T22:25:33.681Z,12.14
2023-04-16T22:28:01.603Z,12.13
2023-04-16T22:30:28.343Z,12.13
2023-04-16T22:32:55.265Z,12.13
2023-04-16T22:35:21.995Z,12.13
2023-04-16T22:37:48.610Z,12.11
2023-04-16T22:40:15.964Z,12.11
2023-04-16T22:42:42.724Z,12.10
2023-04-16T22:45:09.697Z,12.08
2023-04-16T22:47:36.436Z,12.08
2023-04-16T22:50:03.309Z,12.08
2023-04-16T22:52:29.967Z,12.06
2023-04-16T22:54:56.518Z,12.05
2023-04-16T22:57:25.575Z,12.04
2023-04-16T22:59:53.177Z,12.03
2023-04-16T23:02:21.297Z,12.02
2023-04-16T23:04:48.085Z,12.01
2023-04-16T23:07:15.590Z,12.01
2023-04-16T23:09:42.700Z,12.00
2023-04-16T23:12:09.384Z,11.98
2023-04-16T23:14:37.035Z,11.96
2023-04-16T23:17:03.811Z,11.95
2023-04-16T23:19:31.279Z,11.93
2023-04-16T23:21:57.904Z,11.91
2023-04-16T23:24:24.517Z,11.90
2023-04-16T23:26:52.475Z,11.90
2023-04-16T23:29:20.751Z,11.89
2023-04-16T23:31:47.725Z,11.88
2023-04-16T23:34:14.695Z,11.89
2023-04-16T23:36:41.393Z,11.89
2023-04-16T23:39:07.957Z,11.89
2023-04-16T23:41:34.800Z,11.88
2023-04-16T23:44:01.425Z,11.85
2023-04-16T23:46:27.996Z,11.84
2023-04-16T23:48:55.426Z,11.86
2023-04-16T23:51:22.324Z,11.86
2023-04-16T23:53:48.930Z,11.85
2023-04-16T23:56:15.970Z,11.85
2023-04-16T23:58:42.529Z,11.85
